Flo, Texas
Current Conditions -  °F | °C
As of 1:55 AM on Friday 19 Dec 2014 (Local Time) from KLXY Reporting Station
Haze Haze  
Wind Chill: 43°   Ceiling: 400
Heat Index: 47°   Visibility: 4mi
Dew Point: 46°   Wind: 9mph
Humidity: 97%   Direction: 30°NNE
Pressure: 30.08"   Gusts: 16mph
Location:  31.4723°N, 96.0615°W
Report Text: KLXY 190755Z AUTO 03008G14KT 4SM BR OVC004 09/08 A3008 RMK AO2 LTG DSNT SE AND S T00850080
Loading
Personal Weather Stations






























Interactive Weather Map New forecast layout! Learn more

10-Day Weather Forecast

Advertisements
Track Severe Weather on mobile